Time;durP1;ratioP1;P1;durP2;ratioP2;P2;SDS_P1;SDS_P2;PMS_P1;PMS_P2;Temp;Humidity;BMP_temperature;BMP_pressure;BME280_temperature;BME280_humidity;BME280_pressure;Samples;Min_cycle;Max_cycle;Signal;HPM_P1;HPM_P2
2022/04/07 00:00:54;;;;;;;4.85;3.63;;;;;;;10.98;69.41;98434.50;10225159;28;20062;-61
2022/04/07 00:05:57;;;;;;;3.47;2.60;;;;;;;10.94;69.49;98437.50;10236296;28;20558;-61
2022/04/07 00:10:58;;;;;;;3.83;2.38;;;;;;;10.89;69.47;98421.19;10232153;28;20527;-61
2022/04/07 00:16:00;;;;;;;3.10;2.63;;;;;;;10.93;69.23;98413.72;10234096;28;20121;-62
2022/04/07 00:21:06;;;;;;;3.05;2.40;;;;;;;10.73;69.81;98392.81;10231827;28;20047;-62
2022/04/07 00:26:08;;;;;;;4.50;2.72;;;;;;;10.55;69.59;98366.41;10232382;28;20422;-61
2022/04/07 00:31:11;;;;;;;4.50;2.72;;;;;;;10.68;69.25;98381.84;10240041;28;20051;-61
2022/04/07 00:36:13;;;;;;;4.15;2.95;;;;;;;10.59;68.76;98361.56;10239947;28;20720;-61
2022/04/07 00:41:14;;;;;;;2.95;2.65;;;;;;;10.67;68.39;98363.38;10252220;28;20137;-62
2022/04/07 00:46:15;;;;;;;4.13;3.10;;;;;;;10.67;68.71;98356.22;10238204;28;20057;-62
2022/04/07 00:51:17;;;;;;;4.80;3.22;;;;;;;10.47;69.15;98339.81;10241133;28;20046;-62
2022/04/07 00:56:18;;;;;;;4.13;3.20;;;;;;;10.52;68.90;98353.41;10233738;28;20157;-62
2022/04/07 01:01:22;;;;;;;3.85;3.33;;;;;;;10.54;68.77;98359.44;10241508;28;20561;-62
2022/04/07 01:06:25;;;;;;;4.38;3.42;;;;;;;10.48;69.27;98344.16;10231184;28;20070;-62
2022/04/07 01:11:28;;;;;;;3.22;2.70;;;;;;;10.40;69.59;98331.69;10249723;28;20046;-62
2022/04/07 01:16:30;;;;;;;5.18;3.05;;;;;;;10.36;70.06;98329.53;10233091;28;20054;-62
2022/04/07 01:21:34;;;;;;;3.25;2.83;;;;;;;10.48;69.83;98330.84;10237926;28;20444;-62
2022/04/07 01:26:40;;;;;;;4.25;3.78;;;;;;;10.54;70.19;98332.81;10232352;28;20104;-62
2022/04/07 01:31:42;;;;;;;4.72;2.97;;;;;;;10.48;70.70;98303.41;10249526;28;20058;-62
2022/04/07 01:36:48;;;;;;;3.75;3.08;;;;;;;10.53;71.02;98315.19;10238847;28;20446;-67
2022/04/07 01:41:51;;;;;;;2.67;2.47;;;;;;;10.53;71.35;98304.53;10249863;28;20050;-62
2022/04/07 01:46:54;;;;;;;4.57;2.85;;;;;;;10.45;71.91;98280.66;10241253;28;20043;-62
2022/04/07 01:51:55;;;;;;;3.35;2.88;;;;;;;10.52;72.37;98291.41;10247048;28;20157;-62
2022/04/07 01:56:57;;;;;;;3.53;2.80;;;;;;;10.54;72.42;98282.28;10236306;28;20402;-62
2022/04/07 02:01:59;;;;;;;5.05;2.95;;;;;;;10.48;72.48;98259.03;10232551;28;21127;-62
2022/04/07 02:07:00;;;;;;;3.70;2.20;;;;;;;10.59;72.19;98268.47;10231617;28;20054;-62
2022/04/07 02:12:04;;;;;;;3.33;2.40;;;;;;;10.61;72.08;98269.94;10230887;28;20043;-62
2022/04/07 02:17:06;;;;;;;3.93;1.97;;;;;;;10.64;73.09;98278.56;10233029;28;20134;-61
2022/04/07 02:22:07;;;;;;;3.80;1.80;;;;;;;10.47;75.79;98257.34;10233986;28;20303;-60
2022/04/07 02:27:09;;;;;;;2.17;1.63;;;;;;;10.37;77.40;98248.75;10233040;28;20039;-62
2022/04/07 02:32:13;;;;;;;4.82;2.50;;;;;;;10.30;77.93;98247.72;10230547;28;20108;-62
2022/04/07 02:37:15;;;;;;;2.42;2.00;;;;;;;10.35;78.05;98240.94;10240420;28;20047;-61
2022/04/07 02:42:16;;;;;;;2.25;1.95;;;;;;;10.23;80.79;98232.47;10233180;28;20074;-62
2022/04/07 02:47:18;;;;;;;2.88;2.03;;;;;;;10.16;84.11;98212.03;10235355;28;20047;-64
2022/04/07 02:52:19;;;;;;;2.63;2.42;;;;;;;10.07;85.10;98209.44;10228918;28;20129;-62
2022/04/07 02:57:25;;;;;;;3.53;2.55;;;;;;;10.00;85.86;98213.75;10233853;28;20046;-61
2022/04/07 03:02:27;;;;;;;2.10;1.90;;;;;;;10.08;84.95;98186.31;10232008;28;20132;-61
2022/04/07 03:07:28;;;;;;;2.03;1.75;;;;;;;9.96;85.37;98175.22;10228155;28;20114;-61
2022/04/07 03:12:30;;;;;;;2.38;2.13;;;;;;;9.88;87.59;98202.66;10225779;28;20138;-62
2022/04/07 03:17:34;;;;;;;2.40;1.85;;;;;;;9.95;87.53;98188.69;10232586;28;20146;-62
2022/04/07 03:22:35;;;;;;;2.37;1.60;;;;;;;9.97;86.57;98181.34;10229810;28;20043;-62
2022/04/07 03:27:36;;;;;;;2.25;1.60;;;;;;;9.93;85.91;98169.44;10230577;28;20150;-61
2022/04/07 03:32:38;;;;;;;2.08;1.60;;;;;;;9.99;84.62;98172.22;10228638;28;20061;-62
2022/04/07 03:37:39;;;;;;;2.03;1.27;;;;;;;10.04;83.91;98167.25;10227295;28;20055;-62
2022/04/07 03:42:40;;;;;;;2.17;1.60;;;;;;;10.07;83.40;98166.88;10229272;28;20058;-62
2022/04/07 03:47:42;;;;;;;1.60;1.15;;;;;;;10.11;82.80;98153.25;10228142;28;20812;-62
2022/04/07 03:52:43;;;;;;;1.55;1.00;;;;;;;10.16;82.41;98150.91;10233330;28;20134;-63
2022/04/07 03:57:45;;;;;;;1.63;1.20;;;;;;;10.19;82.93;98146.09;10228711;28;20055;-62
2022/04/07 04:02:46;;;;;;;1.35;1.17;;;;;;;10.07;82.96;98128.81;10232487;28;20055;-61
2022/04/07 04:07:48;;;;;;;2.05;1.08;;;;;;;10.07;83.37;98120.84;10232478;28;20054;-62
2022/04/07 04:12:49;;;;;;;1.23;1.13;;;;;;;10.18;82.97;98130.31;10236570;28;20501;-62
2022/04/07 04:17:51;;;;;;;1.30;1.20;;;;;;;9.89;83.21;98095.38;10233811;28;20055;-62
2022/04/07 04:22:52;;;;;;;1.05;0.80;;;;;;;10.05;82.64;98105.06;10234581;28;20133;-62
2022/04/07 04:27:53;;;;;;;1.98;1.30;;;;;;;10.21;82.19;98114.81;10237219;28;20055;-62
2022/04/07 04:32:55;;;;;;;2.17;1.08;;;;;;;10.16;82.03;98111.03;10232141;28;20050;-63
2022/04/07 04:37:56;;;;;;;1.88;1.00;;;;;;;10.05;81.76;98080.34;10240306;28;20784;-63
2022/04/07 04:42:59;;;;;;;1.23;0.82;;;;;;;10.17;81.56;98102.06;10231704;28;20066;-61
2022/04/07 04:48:02;;;;;;;3.08;2.03;;;;;;;10.17;80.90;98084.25;10234551;28;20050;-62
2022/04/07 04:53:03;;;;;;;2.58;1.10;;;;;;;10.23;80.72;98086.22;10238514;28;20072;-62
2022/04/07 04:58:05;;;;;;;2.17;1.02;;;;;;;10.20;80.32;98083.91;10214574;28;20517;-64
2022/04/07 05:03:06;;;;;;;1.10;1.00;;;;;;;10.13;84.01;98067.00;10208238;28;20043;-62
2022/04/07 05:08:08;;;;;;;1.50;1.23;;;;;;;10.02;86.81;98072.72;10206719;28;20051;-64
2022/04/07 05:13:10;;;;;;;1.30;0.95;;;;;;;9.97;87.65;98064.41;10200413;28;20046;-63
2022/04/07 05:18:11;;;;;;;2.53;1.48;;;;;;;9.89;87.21;98070.59;10202211;28;20047;-63
2022/04/07 05:23:13;;;;;;;2.00;1.23;;;;;;;9.97;85.94;98037.84;10217961;28;20062;-64
2022/04/07 05:28:14;;;;;;;1.17;0.80;;;;;;;10.04;85.50;98046.78;10218687;28;20051;-63
2022/04/07 05:33:17;;;;;;;1.60;1.30;;;;;;;10.03;83.83;98042.47;10214224;28;20487;-63
2022/04/07 05:38:18;;;;;;;1.48;0.88;;;;;;;10.13;82.53;98036.94;10216486;28;20043;-63
2022/04/07 05:43:20;;;;;;;2.83;2.00;;;;;;;10.20;81.50;98038.72;10214967;28;20055;-64
2022/04/07 05:48:21;;;;;;;1.63;0.80;;;;;;;10.25;80.73;98006.28;10214626;28;20252;-63
2022/04/07 05:53:23;;;;;;;1.00;0.70;;;;;;;10.61;82.09;98009.22;10217931;28;20055;-64
2022/04/07 05:58:25;;;;;;;1.08;0.70;;;;;;;10.71;78.17;97995.66;10219777;28;20050;-63
2022/04/07 06:03:26;;;;;;;1.00;0.47;;;;;;;10.73;77.49;97976.84;10218617;28;20053;-64
2022/04/07 06:08:28;;;;;;;1.40;1.08;;;;;;;10.84;77.05;97994.22;10216357;28;20070;-62
2022/04/07 06:13:29;;;;;;;0.95;0.40;;;;;;;10.64;77.58;97961.97;10216057;28;20057;-61
2022/04/07 06:18:31;;;;;;;1.80;0.52;;;;;;;10.48;78.20;97966.44;10211157;28;20133;-62
2022/04/07 06:23:32;;;;;;;0.70;0.20;;;;;;;10.30;79.48;97934.78;10213031;28;20066;-61
2022/04/07 06:28:35;;;;;;;0.55;0.20;;;;;;;10.36;81.18;97935.94;10209306;28;20537;-61
2022/04/07 06:33:36;;;;;;;1.65;0.90;;;;;;;10.34;81.08;97922.81;10217044;28;20050;-61
2022/04/07 06:38:58;;;;;;;1.50;0.30;;;;;;;10.31;81.08;97909.03;10213979;28;20051;-63
2022/04/07 06:43:59;;;;;;;0.85;0.50;;;;;;;10.37;80.23;97917.16;10215719;28;20047;-60
2022/04/07 06:49:00;;;;;;;2.65;0.60;;;;;;;10.43;78.72;97902.28;10208440;28;20047;-61
2022/04/07 06:54:02;;;;;;;0.95;0.70;;;;;;;10.37;77.65;97871.94;10212324;28;20054;-62
2022/04/07 06:59:03;;;;;;;5.10;0.40;;;;;;;10.38;78.01;97864.78;10207083;28;20050;-62
2022/04/07 07:04:05;;;;;;;0.95;0.45;;;;;;;10.34;81.20;97882.09;10212481;28;20378;-61
2022/04/07 07:09:06;;;;;;;1.00;0.55;;;;;;;10.11;84.12;97852.88;10211471;28;20057;-60
2022/04/07 07:14:07;;;;;;;1.85;0.40;;;;;;;10.08;84.85;97843.41;10210806;28;21332;-61
2022/04/07 07:19:10;;;;;;;1.08;0.28;;;;;;;10.16;84.49;97832.69;10209051;28;20080;-61
2022/04/07 07:24:11;;;;;;;1.42;0.55;;;;;;;10.22;84.62;97833.81;10210826;28;20057;-61
2022/04/07 07:29:13;;;;;;;3.22;0.50;;;;;;;10.21;84.51;97817.03;10208946;28;20051;-63
2022/04/07 07:34:14;;;;;;;1.08;0.63;;;;;;;10.27;84.18;97796.91;10208985;28;20051;-61
2022/04/07 07:39:15;;;;;;;9.45;0.73;;;;;;;10.33;84.38;97795.31;10222253;28;20551;-61
2022/04/07 07:44:17;;;;;;;2.35;0.40;;;;;;;10.37;83.61;97793.97;10224854;28;20065;-61
2022/04/07 07:49:19;;;;;;;0.98;0.30;;;;;;;10.24;84.68;97779.47;10220479;28;20075;-62
2022/04/07 07:54:20;;;;;;;0.88;0.35;;;;;;;10.32;85.15;97780.38;10222050;28;20058;-62
2022/04/07 07:59:21;;;;;;;2.20;0.17;;;;;;;10.17;84.96;97757.25;10220554;28;20047;-62
2022/04/07 08:04:23;;;;;;;0.63;0.20;;;;;;;10.10;87.50;97751.03;10220182;28;20061;-64
2022/04/07 08:09:25;;;;;;;0.30;0.20;;;;;;;10.10;88.59;97756.34;10220541;28;20233;-63
2022/04/07 08:14:26;;;;;;;2.08;0.85;;;;;;;10.13;88.56;97744.53;10222396;28;20061;-64
2022/04/07 08:19:28;;;;;;;0.85;0.65;;;;;;;10.27;88.36;97728.59;10223200;28;20064;-63
2022/04/07 08:24:29;;;;;;;1.27;0.20;;;;;;;10.35;87.27;97724.22;10219081;28;20090;-63
2022/04/07 08:29:31;;;;;;;0.93;0.20;;;;;;;10.33;89.17;97707.56;10219626;28;20065;-63
2022/04/07 08:34:32;;;;;;;0.47;0.22;;;;;;;10.34;87.72;97693.31;10221286;28;20078;-63
2022/04/07 08:39:34;;;;;;;1.17;0.65;;;;;;;10.31;87.90;97704.28;10220223;28;20156;-62
2022/04/07 08:44:35;;;;;;;0.52;0.30;;;;;;;10.33;87.79;97692.50;10235070;28;20059;-62
2022/04/07 08:49:38;;;;;;;1.10;0.50;;;;;;;10.37;87.37;97685.81;10215931;28;20126;-62
2022/04/07 08:54:39;;;;;;;1.67;0.20;;;;;;;10.50;87.65;97684.31;10217620;28;20118;-63
2022/04/07 08:59:41;;;;;;;1.45;0.35;;;;;;;10.39;87.41;97667.00;10219307;28;20066;-62
2022/04/07 09:04:42;;;;;;;1.45;0.20;;;;;;;10.43;88.10;97665.59;10217314;28;20065;-64
2022/04/07 09:09:44;;;;;;;3.28;0.52;;;;;;;10.48;88.03;97649.94;10217957;28;20137;-64
2022/04/07 09:14:55;;;;;;;2.25;0.35;;;;;;;10.45;87.31;97637.00;10232983;28;20051;-63
2022/04/07 09:19:57;;;;;;;1.02;0.20;;;;;;;10.52;86.31;97616.59;10217296;28;20073;-64
2022/04/07 09:25:05;;;;;;;0.70;0.30;;;;;;;10.66;85.33;97616.75;10218006;28;20055;-65
2022/04/07 09:30:11;;;;;;;2.08;0.20;;;;;;;10.58;84.79;97610.56;10219827;28;20051;-62
2022/04/07 09:35:13;;;;;;;0.68;0.20;;;;;;;10.76;83.63;97602.16;10220836;28;20043;-62
2022/04/07 09:40:17;;;;;;;0.63;0.20;;;;;;;10.79;82.93;97574.31;10215732;28;20163;-63
2022/04/07 09:45:21;;;;;;;1.08;0.28;;;;;;;10.83;82.13;97577.44;10222217;28;20051;-63
2022/04/07 09:50:29;;;;;;;0.13;0.10;;;;;;;10.99;81.99;97589.63;10221130;28;20072;-65
2022/04/07 09:55:36;;;;;;;0.73;0.20;;;;;;;11.02;81.30;97567.97;10215250;28;20118;-64
2022/04/07 10:00:38;;;;;;;0.50;0.13;;;;;;;10.93;82.08;97536.16;10213038;28;20453;-63
2022/04/07 10:05:41;;;;;;;0.22;0.10;;;;;;;10.91;81.72;97532.88;10217550;28;20078;-61
2022/04/07 10:10:42;;;;;;;0.82;0.13;;;;;;;10.93;85.72;97543.34;10217694;28;20055;-61
2022/04/07 10:15:45;;;;;;;0.77;0.70;;;;;;;10.80;85.80;97517.44;10219971;28;20123;-65
2022/04/07 10:20:49;;;;;;;2.03;0.20;;;;;;;10.86;86.37;97521.97;10224668;28;20050;-61
2022/04/07 10:25:52;;;;;;;0.63;0.27;;;;;;;10.94;85.77;97521.00;10249668;28;20050;-63
2022/04/07 10:30:54;;;;;;;0.57;0.20;;;;;;;11.03;85.25;97508.41;10241098;28;20876;-62
2022/04/07 10:35:56;;;;;;;1.33;0.30;;;;;;;11.08;84.88;97476.69;10224450;28;20502;-62
2022/04/07 10:41:01;;;;;;;2.20;0.30;;;;;;;11.04;84.06;97448.81;10216190;28;20098;-62
2022/04/07 10:46:05;;;;;;;0.82;0.35;;;;;;;11.13;83.62;97463.63;10221095;28;20063;-62
2022/04/07 10:51:08;;;;;;;1.65;0.30;;;;;;;11.02;83.29;97430.38;10229476;28;20058;-63
2022/04/07 10:56:34;;;;;;;1.55;0.32;;;;;;;11.17;83.56;97427.63;10219200;28;20051;-61
2022/04/07 11:01:42;;;;;;;0.63;0.15;;;;;;;11.22;83.40;97429.69;10213819;28;20050;-61
2022/04/07 11:07:09;;;;;;;0.70;0.20;;;;;;;11.24;83.58;97414.31;10218331;28;20145;-63
2022/04/07 11:12:15;;;;;;;1.90;0.30;;;;;;;11.31;83.72;97381.38;10212517;28;20051;-61
2022/04/07 11:17:30;;;;;;;1.70;0.40;;;;;;;11.36;83.30;97382.63;10213683;28;20051;-61
2022/04/07 11:22:45;;;;;;;;;;;;;;;11.43;83.66;97367.50;10218744;28;20138;-61
2022/04/07 11:28:04;;;;;;;0.30;0.13;;;;;;;11.55;82.84;97357.91;10215470;28;19926;-61
2022/04/07 11:33:18;;;;;;;0.32;0.10;;;;;;;11.59;82.27;97351.16;10218707;28;20054;-60
2022/04/07 11:38:20;;;;;;;0.73;0.20;;;;;;;11.64;82.34;97338.03;10219523;28;20057;-62
2022/04/07 11:43:23;;;;;;;0.50;0.30;;;;;;;11.66;82.16;97319.19;10213979;28;20757;-63
2022/04/07 11:48:31;;;;;;;1.83;0.30;;;;;;;11.73;84.15;97324.53;10212012;28;20624;-61
2022/04/07 11:53:32;;;;;;;1.15;0.10;;;;;;;11.66;84.06;97317.38;10215541;28;20053;-61
2022/04/07 11:58:34;;;;;;;1.63;0.25;;;;;;;11.86;83.23;97303.25;10218946;28;20640;-61
2022/04/07 12:03:35;;;;;;;1.40;0.10;;;;;;;12.02;82.13;97281.56;10216989;28;20055;-62
2022/04/07 12:08:37;;;;;;;0.60;0.05;;;;;;;12.15;80.96;97279.91;10212953;28;20065;-61
2022/04/07 12:13:38;;;;;;;0.25;0.10;;;;;;;12.19;79.86;97265.13;10217584;28;20059;-61
2022/04/07 12:18:40;;;;;;;1.33;0.10;;;;;;;12.40;79.04;97265.91;10208802;28;20057;-61
2022/04/07 12:23:41;;;;;;;0.60;0.30;;;;;;;12.64;77.98;97257.25;10218579;28;20047;-61
2022/04/07 12:28:43;;;;;;;0.82;0.15;;;;;;;12.84;76.07;97237.66;10221747;28;20738;-61
2022/04/07 12:33:49;;;;;;;1.27;0.10;;;;;;;13.00;75.44;97231.84;10216542;28;20085;-61
2022/04/07 12:39:08;;;;;;;0.10;0.10;;;;;;;13.15;74.50;97226.22;10219371;28;20169;-61
2022/04/07 12:44:16;;;;;;;0.45;0.45;;;;;;;13.40;73.07;97210.25;10219946;28;20047;-61
2022/04/07 12:49:24;;;;;;;1.95;0.20;;;;;;;13.48;72.41;97251.13;10219844;28;20074;-60
2022/04/07 12:54:26;;;;;;;1.30;0.10;;;;;;;13.58;72.25;97208.69;10223190;28;20074;-63
2022/04/07 12:59:27;;;;;;;3.08;0.10;;;;;;;13.66;72.43;97224.50;10214651;28;20458;-61
2022/04/07 13:04:49;;;;;;;0.85;0.17;;;;;;;13.44;75.66;97272.91;10215598;28;20879;-62
2022/04/07 13:09:51;;;;;;;0.95;0.10;;;;;;;13.42;76.93;97248.28;10216243;28;20050;-61
2022/04/07 13:14:52;;;;;;;3.03;0.50;;;;;;;12.48;88.19;97340.41;10218113;28;20047;-60
2022/04/07 13:19:53;;;;;;;1.50;0.10;;;;;;;11.14;90.38;97351.63;10216111;28;20129;-60
2022/04/07 13:24:55;;;;;;;1.13;0.15;;;;;;;10.52;98.08;97342.66;10215975;28;20497;-61
2022/04/07 13:29:56;;;;;;;1.27;0.20;;;;;;;10.65;100.00;97327.81;10215070;28;20058;-60
2022/04/07 13:34:58;;;;;;;1.15;0.13;;;;;;;10.81;100.00;97306.22;10217518;28;20039;-60
2022/04/07 13:39:59;;;;;;;1.95;0.20;;;;;;;11.18;98.25;97349.38;10212774;28;20063;-61
2022/04/07 13:45:17;;;;;;;0.63;0.15;;;;;;;11.35;95.85;97357.00;10211760;28;20168;-63
2022/04/07 13:50:18;;;;;;;1.20;0.30;;;;;;;11.68;94.11;97379.25;10209786;28;20050;-62
2022/04/07 13:55:20;;;;;;;0.40;0.10;;;;;;;11.96;90.13;97372.97;10215041;28;20051;-63
2022/04/07 14:00:21;;;;;;;1.23;0.17;;;;;;;12.11;87.36;97377.31;10212877;28;20633;-62
2022/04/07 14:05:23;;;;;;;1.85;0.10;;;;;;;12.23;84.54;97362.34;10211819;28;20384;-63
2022/04/07 14:10:24;;;;;;;0.40;0.30;;;;;;;12.58;81.64;97358.63;10226041;28;20078;-63
2022/04/07 14:15:26;;;;;;;0.25;0.03;;;;;;;12.93;78.05;97388.56;10214325;28;20815;-62
2022/04/07 14:20:27;;;;;;;1.13;0.20;;;;;;;12.97;77.07;97373.78;10212017;28;20133;-62
2022/04/07 14:25:29;;;;;;;1.38;0.30;;;;;;;13.36;71.53;97369.38;10215112;28;20693;-63
2022/04/07 14:30:31;;;;;;;1.00;0.20;;;;;;;13.44;68.85;97395.81;10216489;28;20185;-64
2022/04/07 14:35:32;;;;;;;0.68;0.20;;;;;;;13.37;64.20;97400.38;10213331;28;20051;-66
2022/04/07 14:40:34;;;;;;;1.45;0.13;;;;;;;13.65;62.10;97390.41;10221109;28;20054;-64
2022/04/07 14:45:37;;;;;;;0.68;0.20;;;;;;;13.89;56.73;97386.97;10222935;28;20087;-64
2022/04/07 14:50:39;;;;;;;2.03;0.30;;;;;;;14.16;51.63;97408.22;10213678;28;20110;-61
2022/04/07 14:55:40;;;;;;;1.13;0.20;;;;;;;14.05;47.78;97433.78;10213396;28;20910;-62
2022/04/07 15:00:43;;;;;;;1.23;0.40;;;;;;;13.96;44.02;97411.00;10209640;28;20786;-62
2022/04/07 15:05:45;;;;;;;1.95;0.20;;;;;;;13.79;43.19;97419.50;10212952;28;20430;-61
2022/04/07 15:10:46;;;;;;;0.43;0.17;;;;;;;13.89;42.72;97418.25;10219251;28;20175;-63
2022/04/07 15:15:47;;;;;;;1.50;0.20;;;;;;;13.87;38.13;97415.78;10216745;28;20086;-62
2022/04/07 15:20:49;;;;;;;2.22;0.38;;;;;;;13.85;36.37;97422.38;10211589;28;20074;-62
2022/04/07 15:25:50;;;;;;;2.03;0.20;;;;;;;13.63;36.21;97430.72;10214302;28;20209;-62
2022/04/07 15:30:52;;;;;;;1.02;0.20;;;;;;;13.61;37.58;97438.09;10209739;28;20065;-62
2022/04/07 15:35:55;;;;;;;1.67;0.30;;;;;;;13.61;37.19;97443.47;10208732;28;20094;-63
2022/04/07 15:41:06;;;;;;;1.40;0.30;;;;;;;13.63;36.91;97436.06;10211250;28;20063;-62
2022/04/07 15:46:13;;;;;;;1.30;0.20;;;;;;;13.56;36.43;97449.44;10218221;28;20628;-62
2022/04/07 15:51:15;;;;;;;1.25;0.20;;;;;;;13.57;35.57;97463.59;10217277;28;20058;-62
2022/04/07 15:56:17;;;;;;;2.90;0.30;;;;;;;13.48;35.75;97456.88;10208561;28;20051;-62
2022/04/07 16:01:18;;;;;;;1.90;0.47;;;;;;;13.52;35.30;97503.53;10224232;28;20070;-62
2022/04/07 16:06:20;;;;;;;1.48;0.20;;;;;;;13.53;35.67;97478.44;10220941;28;20061;-62
2022/04/07 16:11:22;;;;;;;1.35;0.28;;;;;;;13.40;36.16;97501.47;10221688;28;20050;-62
2022/04/07 16:16:23;;;;;;;3.15;0.55;;;;;;;13.36;35.59;97510.13;10222913;28;20141;-62
2022/04/07 16:21:25;;;;;;;3.28;1.23;;;;;;;13.31;37.30;97524.06;10219208;28;20410;-62
2022/04/07 16:26:28;;;;;;;1.75;0.30;;;;;;;13.23;37.50;97524.31;10218370;28;20169;-62
2022/04/07 16:31:32;;;;;;;2.90;0.50;;;;;;;13.15;36.80;97514.66;10218307;28;20051;-62
2022/04/07 16:36:34;;;;;;;3.60;0.40;;;;;;;13.14;35.83;97528.22;10212700;28;20047;-62
2022/04/07 16:41:35;;;;;;;3.03;0.43;;;;;;;13.13;36.29;97542.59;10215224;28;20421;-62
2022/04/07 16:46:36;;;;;;;1.30;0.50;;;;;;;13.05;34.29;97554.31;10209431;28;20446;-61
2022/04/07 16:51:38;;;;;;;1.45;0.20;;;;;;;12.90;33.25;97549.16;10204665;28;20064;-63
2022/04/07 16:56:39;;;;;;;4.35;0.40;;;;;;;12.88;33.77;97567.22;10213429;28;20241;-62
2022/04/07 17:01:41;;;;;;;4.82;0.85;;;;;;;12.77;33.70;97571.31;10211603;28;20050;-63
2022/04/07 17:06:42;;;;;;;2.92;0.50;;;;;;;12.66;33.83;97567.41;10209620;28;20063;-62
2022/04/07 17:11:50;;;;;;;2.03;0.30;;;;;;;12.59;31.73;97585.25;10218855;28;20058;-62
2022/04/07 17:16:52;;;;;;;4.43;0.50;;;;;;;12.47;31.81;97566.31;10218196;28;20066;-62
2022/04/07 17:21:53;;;;;;;3.22;0.40;;;;;;;12.48;31.58;97591.19;10217347;28;20108;-61
2022/04/07 17:26:55;;;;;;;2.00;0.40;;;;;;;12.45;32.84;97600.41;10208057;28;20065;-61
2022/04/07 17:31:56;;;;;;;4.97;0.73;;;;;;;12.40;31.38;97628.69;10207740;28;20062;-61
2022/04/07 17:37:03;;;;;;;3.17;0.40;;;;;;;12.22;30.83;97595.41;10214499;28;20063;-62
2022/04/07 17:42:05;;;;;;;3.70;0.85;;;;;;;12.27;31.04;97640.94;10217053;28;20142;-62
2022/04/07 17:47:07;;;;;;;2.75;0.88;;;;;;;12.13;31.09;97633.91;10218544;28;20058;-61
2022/04/07 17:52:09;;;;;;;3.10;0.50;;;;;;;11.99;30.28;97620.53;10216691;28;20057;-61
2022/04/07 17:57:10;;;;;;;4.43;0.80;;;;;;;12.05;30.08;97658.06;10210770;28;20050;-64
2022/04/07 18:02:15;;;;;;;4.03;0.60;;;;;;;11.92;30.71;97666.78;10214486;28;20055;-62
2022/04/07 18:07:16;;;;;;;3.50;0.50;;;;;;;11.95;30.45;97669.06;10216360;28;20067;-61
2022/04/07 18:12:18;;;;;;;1.50;0.40;;;;;;;11.84;30.19;97686.41;10214046;28;20065;-62
2022/04/07 18:17:19;;;;;;;1.73;0.43;;;;;;;11.79;29.91;97696.84;10217528;28;20510;-62
2022/04/07 18:22:21;;;;;;;1.67;0.47;;;;;;;11.76;30.08;97710.56;10212655;28;20054;-61
2022/04/07 18:27:25;;;;;;;2.47;0.40;;;;;;;11.63;31.10;97693.44;10230939;28;20046;-60
2022/04/07 18:32:27;;;;;;;1.83;0.50;;;;;;;11.81;35.39;97726.78;10215976;28;20087;-61
2022/04/07 18:37:28;;;;;;;2.47;0.47;;;;;;;11.99;32.99;97726.31;10223166;28;20090;-62
2022/04/07 18:42:38;;;;;;;3.05;0.50;;;;;;;11.76;30.33;97750.53;10215569;28;20047;-62
2022/04/07 18:47:39;;;;;;;4.22;0.68;;;;;;;11.58;30.94;97762.47;10217429;28;20438;-61
2022/04/07 18:52:40;;;;;;;1.90;0.35;;;;;;;11.55;31.45;97808.13;10216961;28;20396;-61
2022/04/07 18:57:42;;;;;;;2.83;0.55;;;;;;;11.42;32.71;97803.47;10218780;28;20491;-62
2022/04/07 19:02:44;;;;;;;4.03;1.17;;;;;;;11.40;32.19;97832.16;10217782;28;20085;-61
2022/04/07 19:07:46;;;;;;;3.67;0.60;;;;;;;11.28;32.37;97826.47;10209152;28;20058;-62
2022/04/07 19:12:48;;;;;;;2.35;0.38;;;;;;;11.27;31.95;97840.84;10214096;28;20089;-61
2022/04/07 19:17:49;;;;;;;3.17;0.50;;;;;;;11.17;31.59;97853.63;10215845;28;20080;-61
2022/04/07 19:22:51;;;;;;;2.03;0.50;;;;;;;11.16;32.37;97859.94;10220872;28;20051;-62
2022/04/07 19:27:52;;;;;;;2.97;0.57;;;;;;;11.13;32.10;97863.78;10217594;28;20059;-62
2022/04/07 19:32:54;;;;;;;2.92;0.40;;;;;;;11.02;32.61;97884.72;10219315;28;20051;-61
2022/04/07 19:37:55;;;;;;;2.55;0.52;;;;;;;11.01;32.06;97901.72;10209651;28;20055;-61
2022/04/07 19:42:57;;;;;;;1.50;0.52;;;;;;;10.96;32.88;97903.09;10218611;28;20148;-61
2022/04/07 19:47:58;;;;;;;3.63;0.70;;;;;;;10.85;32.67;97914.19;10216208;28;20418;-62
2022/04/07 19:53:00;;;;;;;1.77;0.45;;;;;;;10.77;31.83;97920.41;10226856;28;20061;-60
2022/04/07 19:58:02;;;;;;;4.78;1.05;;;;;;;10.78;32.33;97943.38;10215614;28;20047;-61
2022/04/07 20:03:04;;;;;;;2.60;0.40;;;;;;;10.71;32.32;97939.78;10216841;28;20051;-62
2022/04/07 20:08:05;;;;;;;2.90;0.88;;;;;;;10.64;32.51;97954.81;10214443;28;20051;-62
2022/04/07 20:13:07;;;;;;;2.30;0.50;;;;;;;10.61;32.73;97976.44;10211805;28;20775;-61
2022/04/07 20:18:08;;;;;;;2.67;0.45;;;;;;;10.54;32.42;97965.72;10215073;28;20947;-62
2022/04/07 20:23:11;;;;;;;2.03;0.52;;;;;;;10.59;33.22;97995.25;10211099;28;20133;-63
2022/04/07 20:28:13;;;;;;;3.92;0.40;;;;;;;10.52;32.99;97994.31;10215620;28;20065;-62
2022/04/07 20:33:14;;;;;;;1.35;0.40;;;;;;;10.46;33.49;98000.34;10211363;28;20464;-62
2022/04/07 20:38:16;;;;;;;3.28;0.88;;;;;;;10.37;34.02;97990.78;10210764;28;20963;-61
2022/04/07 20:43:17;;;;;;;2.88;0.63;;;;;;;10.33;33.71;98016.03;10218892;28;20738;-62
2022/04/07 20:48:18;;;;;;;4.45;1.33;;;;;;;10.33;34.01;98029.31;10225563;28;20047;-62
2022/04/07 20:53:20;;;;;;;2.45;0.40;;;;;;;10.19;33.90;98020.28;10236321;28;20053;-62
2022/04/07 20:58:21;;;;;;;2.45;0.52;;;;;;;10.17;34.70;98017.78;10234538;28;20434;-63
2022/04/07 21:03:23;;;;;;;3.55;0.40;;;;;;;10.23;34.81;98033.03;10235613;28;20253;-62
2022/04/07 21:08:24;;;;;;;4.30;0.60;;;;;;;10.04;34.97;98017.53;10240739;28;20158;-62
2022/04/07 21:13:29;;;;;;;1.60;0.30;;;;;;;9.98;35.15;98015.59;10238274;28;20174;-62
2022/04/07 21:18:31;;;;;;;3.63;0.80;;;;;;;10.08;35.30;98061.38;10238333;28;20054;-64
2022/04/07 21:23:32;;;;;;;3.10;0.90;;;;;;;10.05;35.33;98083.00;10236542;28;20613;-61
2022/04/07 21:28:35;;;;;;;4.15;0.70;;;;;;;10.04;35.97;98091.97;10236908;28;20174;-61
2022/04/07 21:33:36;;;;;;;3.83;0.80;;;;;;;9.98;35.90;98084.69;10244442;28;20069;-62
2022/04/07 21:38:38;;;;;;;2.47;0.57;;;;;;;9.98;36.49;98108.59;10242744;28;20047;-62
2022/04/07 21:43:39;;;;;;;3.05;0.60;;;;;;;9.94;36.74;98124.06;10236181;28;20055;-62
2022/04/07 21:48:40;;;;;;;2.35;0.57;;;;;;;9.90;36.91;98122.75;10237103;28;20054;-62
2022/04/07 21:53:42;;;;;;;6.57;0.75;;;;;;;9.76;37.72;98104.84;10237559;28;20059;-61
2022/04/07 21:58:43;;;;;;;4.57;0.73;;;;;;;9.74;37.80;98131.59;10230914;28;20174;-61
2022/04/07 22:03:44;;;;;;;2.75;1.02;;;;;;;9.66;38.15;98137.75;10237233;28;20082;-62
2022/04/07 22:08:46;;;;;;;3.60;0.95;;;;;;;9.66;38.38;98152.88;10230827;28;20057;-61
2022/04/07 22:13:47;;;;;;;5.18;0.80;;;;;;;9.66;38.51;98147.56;10234841;28;20075;-61
2022/04/07 22:18:50;;;;;;;3.80;0.90;;;;;;;9.70;39.26;98164.84;10233050;28;20564;-61
2022/04/07 22:23:51;;;;;;;4.32;0.68;;;;;;;9.72;39.53;98178.75;10238276;28;20054;-64
2022/04/07 22:28:52;;;;;;;1.88;0.43;;;;;;;9.63;40.03;98185.09;10233553;28;20417;-63
2022/04/07 22:33:54;;;;;;;2.97;0.80;;;;;;;9.63;40.30;98201.84;10233345;28;20055;-62
2022/04/07 22:38:55;;;;;;;4.47;0.93;;;;;;;9.51;40.81;98182.75;10239966;28;20050;-61
2022/04/07 22:43:56;;;;;;;3.63;0.68;;;;;;;9.53;40.90;98210.00;10240243;28;20507;-62
2022/04/07 22:48:58;;;;;;;4.70;0.85;;;;;;;9.46;41.44;98198.38;10244284;28;20110;-61
2022/04/07 22:54:00;;;;;;;4.70;1.33;;;;;;;9.59;42.00;98239.53;10275441;28;20053;-61
2022/04/07 22:59:01;;;;;;;4.05;1.13;;;;;;;9.53;42.42;98249.00;10248343;28;20062;-61
2022/04/07 23:04:03;;;;;;;5.65;0.98;;;;;;;9.44;42.86;98226.91;10236958;28;20597;-61
2022/04/07 23:09:04;;;;;;;7.35;1.73;;;;;;;9.47;43.15;98262.94;10237245;28;20469;-65
2022/04/07 23:14:06;;;;;;;4.57;1.25;;;;;;;9.39;43.49;98258.47;10250202;28;20644;-62
2022/04/07 23:19:11;;;;;;;3.38;1.10;;;;;;;9.42;43.97;98262.63;10245130;28;20050;-62
2022/04/07 23:24:13;;;;;;;4.60;1.63;;;;;;;9.13;43.88;98227.56;10246688;28;20565;-62
2022/04/07 23:29:15;;;;;;;4.22;1.50;;;;;;;9.30;44.10;98272.72;10229984;28;20783;-61